Time;durP1;ratioP1;P1;durP2;ratioP2;P2;SDS_P1;SDS_P2;PMS_P1;PMS_P2;Temp;Humidity;BMP_temperature;BMP_pressure;BME280_temperature;BME280_humidity;BME280_pressure;Samples;Min_cycle;Max_cycle;Signal;HPM_P1;HPM_P2
2021/06/17 00:00:11;;;;;;;12.45;9.73;;;22.90;96.60;;;;;;4962327;28;20055;-78
2021/06/17 00:02:38;;;;;;;13.00;9.82;;;22.80;96.70;;;;;;4958930;28;20050;-77
2021/06/17 00:05:08;;;;;;;12.60;10.05;;;22.80;96.90;;;;;;4957728;28;20457;-77
2021/06/17 00:07:35;;;;;;;14.00;10.95;;;22.70;97.00;;;;;;4958917;28;20055;-77
2021/06/17 00:10:07;;;;;;;16.17;10.15;;;22.70;97.40;;;;;;4940867;28;20055;-78
2021/06/17 00:12:34;;;;;;;12.18;10.27;;;22.70;97.50;;;;;;4958703;28;20061;-78
2021/06/17 00:15:01;;;;;;;13.07;10.38;;;22.60;97.70;;;;;;4957251;28;20114;-78
2021/06/17 00:17:28;;;;;;;12.95;10.80;;;22.60;98.10;;;;;;4959488;28;20054;-78
2021/06/17 00:19:55;;;;;;;12.18;10.25;;;22.50;98.00;;;;;;4939926;28;20109;-77
2021/06/17 00:22:21;;;;;;;15.10;10.80;;;22.50;98.10;;;;;;4961441;28;20137;-77
2021/06/17 00:24:48;;;;;;;14.43;10.77;;;22.50;98.40;;;;;;4955446;28;20066;-78
2021/06/17 00:27:15;;;;;;;16.88;11.40;;;22.40;98.50;;;;;;4957576;28;20116;-78
2021/06/17 00:29:42;;;;;;;12.93;10.15;;;22.40;98.50;;;;;;4958256;28;20055;-78
2021/06/17 00:32:09;;;;;;;16.60;10.93;;;22.40;98.80;;;;;;4957025;28;20417;-78
2021/06/17 00:34:35;;;;;;;12.35;10.32;;;22.30;99.00;;;;;;4960091;28;20043;-78
2021/06/17 00:37:02;;;;;;;13.20;9.90;;;22.30;99.00;;;;;;4960139;28;20050;-78
2021/06/17 00:39:29;;;;;;;13.27;10.60;;;22.30;99.30;;;;;;4959501;28;20050;-78
2021/06/17 00:41:56;;;;;;;14.25;10.52;;;22.30;99.30;;;;;;4957202;28;20413;-77
2021/06/17 00:44:22;;;;;;;13.38;11.20;;;22.30;99.40;;;;;;4957263;28;20500;-78
2021/06/17 00:46:49;;;;;;;15.35;11.38;;;22.20;99.70;;;;;;4956787;28;20050;-78
2021/06/17 00:49:16;;;;;;;13.60;10.38;;;22.20;99.80;;;;;;4959942;28;20051;-77
2021/06/17 00:51:42;;;;;;;15.20;11.27;;;22.10;99.90;;;;;;4952123;28;20055;-78
2021/06/17 00:54:09;;;;;;;15.10;10.80;;;22.10;99.90;;;;;;4958256;28;20498;-78
2021/06/17 00:56:36;;;;;;;13.20;10.55;;;22.10;99.90;;;;;;4959380;28;20065;-77
2021/06/17 00:59:04;;;;;;;12.80;10.93;;;22.00;99.90;;;;;;4952408;28;20051;-78
2021/06/17 01:01:30;;;;;;;15.27;11.70;;;22.00;99.90;;;;;;4961200;28;20045;-78
2021/06/17 01:03:57;;;;;;;12.63;10.93;;;22.00;99.90;;;;;;4958718;28;20055;-78
2021/06/17 01:06:24;;;;;;;16.75;11.73;;;22.00;99.90;;;;;;4955481;28;20053;-78
2021/06/17 01:09:04;;;;;;;13.43;11.73;;;21.90;99.90;;;;;;4956923;28;20057;-77
2021/06/17 01:11:48;;;;;;;14.25;10.82;;;21.90;99.90;;;;;;4968360;28;20126;-78
2021/06/17 01:14:32;;;;;;;13.60;11.15;;;21.80;99.90;;;;;;4951734;28;20818;-76
2021/06/17 01:17:08;;;;;;;12.13;10.48;;;21.80;99.90;;;;;;4957607;28;20053;-77
2021/06/17 01:20:02;;;;;;;19.60;11.85;;;21.80;99.90;;;;;;4931295;28;20054;-77
2021/06/17 01:22:49;;;;;;;12.23;10.77;;;21.80;99.90;;;;;;4960033;28;20047;-77
2021/06/17 01:25:51;;;;;;;13.98;11.63;;;21.70;99.90;;;;;;4960727;28;20405;-78
2021/06/17 01:28:19;;;;;;;14.60;11.73;;;21.70;99.90;;;;;;4955688;28;20046;-77
2021/06/17 01:31:11;;;;;;;13.70;11.52;;;21.70;99.90;;;;;;4962372;28;20402;-79
2021/06/17 01:33:42;;;;;;;14.20;10.50;;;21.70;99.90;;;;;;4961995;28;20106;-79
2021/06/17 01:36:20;;;;;;;14.63;11.27;;;21.60;99.90;;;;;;4961998;28;20793;-79
2021/06/17 01:38:51;;;;;;;16.02;11.88;;;21.60;99.90;;;;;;4962834;28;20062;-79
2021/06/17 01:41:24;;;;;;;13.90;11.57;;;21.60;99.90;;;;;;4962295;28;20057;-79
2021/06/17 01:43:52;;;;;;;15.85;11.82;;;21.50;99.90;;;;;;4968184;28;20057;-79
2021/06/17 01:46:20;;;;;;;14.13;11.82;;;21.50;99.90;;;;;;4962112;28;20061;-79
2021/06/17 01:48:52;;;;;;;14.15;12.45;;;21.50;99.90;;;;;;4972111;28;20073;-79
2021/06/17 01:51:21;;;;;;;13.43;11.50;;;21.50;99.90;;;;;;4969513;28;20047;-79
2021/06/17 01:53:49;;;;;;;16.52;11.50;;;21.40;99.90;;;;;;4970925;28;20053;-79
2021/06/17 01:56:19;;;;;;;17.90;12.98;;;21.40;99.90;;;;;;4962926;28;20049;-77
2021/06/17 01:58:49;;;;;;;14.95;11.35;;;21.40;99.90;;;;;;4957709;28;20046;-79
2021/06/17 02:01:18;;;;;;;22.70;12.25;;;21.40;99.90;;;;;;4969310;28;20418;-79
2021/06/17 02:03:47;;;;;;;14.07;11.95;;;21.40;99.90;;;;;;4971150;28;20047;-80
2021/06/17 02:06:15;;;;;;;14.88;12.35;;;21.40;99.90;;;;;;4963175;28;20490;-79
2021/06/17 02:08:46;;;;;;;13.80;12.38;;;21.30;99.90;;;;;;4981406;28;20051;-79
2021/06/17 02:11:15;;;;;;;19.33;12.45;;;21.30;99.90;;;;;;4960399;28;20055;-79
2021/06/17 02:13:42;;;;;;;14.82;12.15;;;21.30;99.90;;;;;;4976684;28;20047;-78
2021/06/17 02:16:10;;;;;;;18.38;12.38;;;21.30;99.90;;;;;;4962069;28;20500;-78
2021/06/17 02:18:39;;;;;;;16.13;12.65;;;21.30;99.90;;;;;;4959443;28;20509;-77
2021/06/17 02:21:10;;;;;;;16.65;13.43;;;21.20;99.90;;;;;;4941820;28;20106;-80
2021/06/17 02:23:37;;;;;;;20.20;12.23;;;21.20;99.90;;;;;;4961225;28;20045;-80
2021/06/17 02:26:06;;;;;;;17.80;12.05;;;21.20;99.90;;;;;;4960777;28;20070;-79
2021/06/17 02:28:40;;;;;;;16.23;11.82;;;21.10;99.90;;;;;;4962995;28;20078;-77
2021/06/17 02:31:12;;;;;;;14.95;11.73;;;21.20;99.90;;;;;;4962900;28;20042;-78
2021/06/17 02:33:39;;;;;;;18.43;12.47;;;21.10;99.90;;;;;;4960927;28;20053;-77
2021/06/17 02:36:06;;;;;;;17.85;13.38;;;21.10;99.90;;;;;;4942828;28;20059;-77
2021/06/17 02:38:39;;;;;;;17.48;12.95;;;21.00;99.90;;;;;;4958063;28;20122;-77
2021/06/17 02:41:09;;;;;;;17.60;13.30;;;21.00;99.90;;;;;;4961534;28;20105;-77
2021/06/17 02:43:41;;;;;;;16.20;13.93;;;21.00;99.90;;;;;;4961979;28;20287;-78
2021/06/17 02:46:10;;;;;;;19.02;12.75;;;21.00;99.90;;;;;;4966112;28;20061;-78
2021/06/17 02:48:37;;;;;;;15.55;12.90;;;20.90;99.90;;;;;;4961395;28;20061;-77
2021/06/17 02:51:04;;;;;;;16.02;13.95;;;20.90;99.90;;;;;;4960354;28;20093;-77
2021/06/17 02:53:31;;;;;;;16.27;13.93;;;20.90;99.90;;;;;;4961092;28;21024;-77
2021/06/17 02:56:02;;;;;;;20.50;15.68;;;20.90;99.90;;;;;;4965119;28;20559;-77
2021/06/17 02:58:52;;;;;;;20.08;15.15;;;20.80;99.90;;;;;;4961964;28;20054;-77
2021/06/17 03:01:38;;;;;;;17.92;14.75;;;20.80;99.90;;;;;;4940239;28;20413;-77
2021/06/17 03:04:20;;;;;;;20.40;15.52;;;20.80;99.90;;;;;;4970462;28;20149;-78
2021/06/17 03:06:50;;;;;;;18.50;15.25;;;20.70;99.90;;;;;;4964521;28;20057;-78
2021/06/17 03:09:26;;;;;;;22.40;15.88;;;20.70;99.90;;;;;;4957090;28;20061;-78
2021/06/17 03:11:56;;;;;;;16.63;14.23;;;20.70;99.90;;;;;;4958409;28;20144;-78
2021/06/17 03:14:31;;;;;;;19.45;15.02;;;20.70;99.90;;;;;;4958261;28;20069;-77
2021/06/17 03:16:59;;;;;;;23.67;15.32;;;20.70;99.90;;;;;;4958735;28;20055;-78
2021/06/17 03:19:28;;;;;;;20.92;15.27;;;20.70;99.90;;;;;;4960775;28;20180;-78
2021/06/17 03:22:02;;;;;;;19.15;15.38;;;20.70;99.90;;;;;;4962226;28;20049;-78
2021/06/17 03:24:33;;;;;;;17.95;14.68;;;20.70;99.90;;;;;;4955828;28;20050;-77
2021/06/17 03:27:02;;;;;;;20.48;15.23;;;20.60;99.90;;;;;;4959319;28;20050;-78
2021/06/17 03:29:34;;;;;;;21.27;15.20;;;20.60;99.90;;;;;;4960824;28;20054;-78
2021/06/17 03:32:03;;;;;;;20.40;15.45;;;20.60;99.90;;;;;;4959776;28;20049;-80
2021/06/17 03:34:31;;;;;;;17.38;15.50;;;20.70;99.90;;;;;;4959322;28;20055;-80
2021/06/17 03:37:00;;;;;;;22.63;16.65;;;20.70;99.90;;;;;;4945344;28;20133;-79
2021/06/17 03:39:27;;;;;;;21.85;15.38;;;20.70;99.90;;;;;;4963362;28;20051;-80
2021/06/17 03:41:54;;;;;;;18.40;15.20;;;20.70;99.90;;;;;;4964143;28;20069;-79
2021/06/17 03:44:23;;;;;;;22.33;16.88;;;20.70;99.90;;;;;;4962433;28;20145;-79
2021/06/17 03:46:52;;;;;;;20.73;16.20;;;20.70;99.90;;;;;;4964775;28;20151;-79
2021/06/17 03:49:22;;;;;;;17.75;15.85;;;20.70;99.90;;;;;;4964579;28;20058;-79
2021/06/17 03:51:49;;;;;;;22.30;17.48;;;20.70;99.90;;;;;;4963694;28;20065;-79
2021/06/17 03:54:25;;;;;;;19.70;16.27;;;20.70;99.90;;;;;;4955164;28;20051;-79
2021/06/17 03:56:57;;;;;;;20.85;16.50;;;20.80;99.90;;;;;;4945311;28;20040;-79
2021/06/17 03:59:29;;;;;;;19.98;15.77;;;20.80;99.90;;;;;;4964068;28;20047;-79
2021/06/17 04:01:56;;;;;;;20.85;16.85;;;20.80;99.90;;;;;;4966929;28;20035;-79
2021/06/17 04:04:25;;;;;;;18.63;16.13;;;20.80;99.90;;;;;;4959681;28;20331;-79
2021/06/17 04:06:58;;;;;;;19.67;16.27;;;20.90;99.90;;;;;;4965249;28;20126;-79
2021/06/17 04:09:29;;;;;;;19.33;16.13;;;20.90;99.90;;;;;;4962556;28;20051;-79
2021/06/17 04:11:59;;;;;;;19.80;17.15;;;21.00;99.90;;;;;;4963316;28;20509;-80
2021/06/17 04:14:29;;;;;;;21.80;17.23;;;21.00;99.90;;;;;;4964495;28;20051;-79
2021/06/17 04:16:56;;;;;;;22.08;16.45;;;21.10;99.90;;;;;;4967046;28;20562;-79
2021/06/17 04:19:26;;;;;;;19.75;17.17;;;21.20;99.90;;;;;;4960099;28;20081;-79
2021/06/17 04:21:58;;;;;;;26.40;16.42;;;21.40;99.90;;;;;;4977704;28;20150;-79
2021/06/17 04:24:29;;;;;;;22.17;17.55;;;21.50;99.90;;;;;;4964937;28;20050;-80
2021/06/17 04:26:56;;;;;;;23.25;17.73;;;21.70;99.90;;;;;;4964286;28;20070;-79
2021/06/17 04:29:24;;;;;;;29.58;17.83;;;21.70;99.90;;;;;;4961456;28;20047;-79
2021/06/17 04:31:53;;;;;;;21.00;18.10;;;21.80;99.90;;;;;;4963128;28;20049;-79
2021/06/17 04:34:22;;;;;;;21.88;17.48;;;21.80;99.90;;;;;;4962430;28;20062;-79
2021/06/17 04:36:49;;;;;;;21.02;18.38;;;21.80;99.90;;;;;;4962266;28;20130;-79
2021/06/17 04:39:16;;;;;;;23.38;18.88;;;21.80;99.90;;;;;;4966274;28;20078;-77
2021/06/17 04:41:44;;;;;;;21.13;18.65;;;21.80;99.90;;;;;;4959317;28;20051;-79
2021/06/17 04:44:11;;;;;;;22.95;18.40;;;21.80;99.90;;;;;;4963720;28;20081;-77
2021/06/17 04:46:39;;;;;;;21.48;19.08;;;21.80;99.90;;;;;;4964418;28;20497;-78
2021/06/17 04:49:12;;;;;;;21.75;19.45;;;21.80;99.90;;;;;;4955850;28;20142;-77
2021/06/17 04:51:40;;;;;;;;;;;21.80;99.90;;;;;;4959240;28;20390;-78
2021/06/17 04:54:18;;;;;;;25.48;19.75;;;21.80;99.90;;;;;;4963514;28;19922;-78
2021/06/17 04:56:45;;;;;;;25.30;20.25;;;21.80;99.90;;;;;;4959669;28;20051;-78
2021/06/17 04:59:16;;;;;;;23.73;20.40;;;21.80;99.90;;;;;;4957299;28;20495;-77
2021/06/17 05:01:43;;;;;;;28.45;20.42;;;21.90;99.90;;;;;;4962098;28;20061;-79
2021/06/17 05:04:10;;;;;;;31.48;21.30;;;22.00;99.90;;;;;;4971037;28;20061;-78
2021/06/17 05:06:40;;;;;;;27.15;22.67;;;22.00;99.90;;;;;;4963180;28;20119;-78
2021/06/17 05:11:53;;;;;;;23.67;21.13;;;22.10;99.90;;;;;;4973941;28;20450;-78
2021/06/17 05:14:20;;;;;;;28.58;22.40;;;22.20;99.90;;;;;;4966641;28;20070;-78
2021/06/17 05:16:47;;;;;;;24.00;21.05;;;22.30;99.90;;;;;;4968152;28;20061;-79
2021/06/17 05:19:15;;;;;;;25.17;21.90;;;22.40;99.90;;;;;;4968347;28;20062;-78
2021/06/17 05:21:42;;;;;;;27.55;21.40;;;22.50;99.90;;;;;;4973732;28;20070;-78
2021/06/17 05:24:10;;;;;;;25.08;21.02;;;22.50;99.90;;;;;;4966429;28;20059;-78
2021/06/17 05:26:37;;;;;;;24.25;20.95;;;22.70;99.90;;;;;;4968672;28;20066;-78
2021/06/17 05:29:04;;;;;;;23.63;19.95;;;22.70;99.90;;;;;;4970130;28;20050;-78
2021/06/17 05:31:31;;;;;;;25.23;20.50;;;22.80;99.90;;;;;;4967482;28;20060;-77
2021/06/17 05:33:58;;;;;;;28.67;21.98;;;22.90;99.90;;;;;;4966894;28;20788;-78
2021/06/17 05:36:26;;;;;;;27.33;21.02;;;23.10;99.90;;;;;;4965552;28;20055;-78
2021/06/17 05:38:53;;;;;;;22.85;20.33;;;23.20;99.90;;;;;;4962916;28;20565;-78
2021/06/17 05:41:23;;;;;;;22.40;18.85;;;23.30;99.90;;;;;;4957680;28;20048;-78
2021/06/17 05:43:50;;;;;;;22.05;18.83;;;23.40;99.90;;;;;;4963781;28;20043;-77
2021/06/17 05:46:16;;;;;;;24.35;18.73;;;23.60;99.90;;;;;;4968048;28;20557;-78
2021/06/17 05:48:43;;;;;;;24.33;18.67;;;23.70;99.90;;;;;;4955516;28;20051;-78
2021/06/17 05:51:10;;;;;;;21.25;18.10;;;23.80;99.90;;;;;;4963073;28;20057;-78
2021/06/17 05:53:37;;;;;;;23.00;18.88;;;24.00;99.90;;;;;;4966516;28;20178;-78
2021/06/17 05:56:04;;;;;;;22.15;17.98;;;24.10;99.90;;;;;;4966664;28;20047;-78
2021/06/17 05:58:31;;;;;;;22.00;17.15;;;24.20;99.90;;;;;;4970752;28;20468;-78
2021/06/17 06:00:58;;;;;;;21.42;16.65;;;24.30;99.90;;;;;;4980626;28;20047;-77
2021/06/17 06:03:25;;;;;;;20.58;16.92;;;24.40;99.90;;;;;;4969481;28;20051;-78
2021/06/17 06:05:51;;;;;;;20.23;17.55;;;24.50;99.90;;;;;;4967543;28;20914;-77
2021/06/17 06:08:18;;;;;;;20.08;17.35;;;24.60;99.90;;;;;;4962562;28;20482;-78
2021/06/17 06:10:45;;;;;;;21.33;16.48;;;24.70;99.90;;;;;;4967440;28;20111;-78
2021/06/17 06:13:12;;;;;;;20.13;17.08;;;24.70;99.90;;;;;;4968667;28;20059;-78
2021/06/17 06:15:38;;;;;;;20.30;16.83;;;24.80;99.90;;;;;;4966585;28;20058;-78
2021/06/17 06:18:07;;;;;;;22.90;18.05;;;24.90;99.70;;;;;;4970123;28;20138;-79
2021/06/17 06:20:35;;;;;;;21.95;15.77;;;25.00;99.60;;;;;;4967747;28;20051;-79
2021/06/17 06:23:02;;;;;;;19.52;16.13;;;25.20;99.70;;;;;;4965536;28;20050;-79
2021/06/17 06:25:29;;;;;;;17.73;15.82;;;25.30;99.50;;;;;;4970801;28;20069;-79
2021/06/17 06:27:55;;;;;;;18.48;16.15;;;25.40;99.40;;;;;;4961625;28;20142;-79
2021/06/17 06:30:22;;;;;;;19.10;15.63;;;25.50;99.70;;;;;;4963440;28;20110;-78
2021/06/17 06:32:52;;;;;;;20.17;15.68;;;25.60;98.70;;;;;;4967181;28;20050;-78
2021/06/17 06:35:19;;;;;;;16.65;14.88;;;25.70;98.50;;;;;;4980871;28;20189;-78
2021/06/17 06:37:49;;;;;;;16.63;14.43;;;25.90;98.30;;;;;;4964994;28;20059;-79
2021/06/17 06:40:22;;;;;;;16.20;13.93;;;26.00;98.10;;;;;;4967972;28;20138;-78
2021/06/17 06:42:50;;;;;;;15.63;14.05;;;26.20;97.20;;;;;;4966386;28;20526;-78
2021/06/17 06:45:17;;;;;;;21.33;13.60;;;26.40;97.60;;;;;;4967340;28;20479;-78
2021/06/17 06:47:43;;;;;;;14.38;12.65;;;26.60;97.00;;;;;;4974526;28;20458;-78
2021/06/17 06:50:11;;;;;;;15.73;12.95;;;26.90;96.30;;;;;;4962674;28;20049;-79
2021/06/17 06:52:40;;;;;;;17.05;12.60;;;27.20;96.00;;;;;;4968112;28;20087;-78
2021/06/17 06:55:07;;;;;;;15.98;12.77;;;27.60;96.20;;;;;;4970285;28;20051;-79
2021/06/17 06:57:35;;;;;;;13.25;11.85;;;27.90;94.40;;;;;;4965957;28;20053;-79
2021/06/17 07:00:07;;;;;;;15.52;11.13;;;28.20;94.40;;;;;;4954196;28;20131;-79
2021/06/17 07:02:34;;;;;;;12.68;10.65;;;28.40;92.90;;;;;;4964515;28;20051;-79
2021/06/17 07:05:03;;;;;;;12.40;10.88;;;28.60;93.10;;;;;;4964341;28;20057;-79
2021/06/17 07:07:30;;;;;;;13.23;10.90;;;28.70;92.60;;;;;;4967242;28;20051;-79
2021/06/17 07:09:57;;;;;;;12.00;10.05;;;28.90;92.40;;;;;;4965515;28;20065;-79
2021/06/17 07:12:24;;;;;;;12.90;9.55;;;29.10;92.50;;;;;;4966486;28;20080;-79
2021/06/17 07:14:51;;;;;;;12.65;9.75;;;29.40;91.50;;;;;;4967620;28;20505;-79
2021/06/17 07:17:17;;;;;;;9.02;8.13;;;29.60;90.70;;;;;;4967252;28;21319;-79
2021/06/17 07:19:45;;;;;;;10.38;8.40;;;29.80;90.60;;;;;;4965752;28;20070;-79
2021/06/17 07:22:12;;;;;;;8.77;7.95;;;29.80;89.20;;;;;;4964889;28;20061;-79
2021/06/17 07:24:39;;;;;;;9.60;8.48;;;29.80;88.40;;;;;;4969944;28;20074;-79
2021/06/17 07:27:06;;;;;;;13.60;8.00;;;29.90;88.70;;;;;;4963829;28;20059;-79
2021/06/17 07:29:32;;;;;;;9.55;7.90;;;29.80;86.50;;;;;;4947800;28;20071;-79
2021/06/17 07:32:04;;;;;;;10.57;7.88;;;29.70;86.50;;;;;;4972703;28;20082;-79
2021/06/17 07:34:30;;;;;;;15.50;9.18;;;29.70;87.60;;;;;;4949450;28;20051;-79
2021/06/17 07:36:57;;;;;;;9.38;7.65;;;29.70;87.20;;;;;;4966345;28;20057;-79
2021/06/17 07:39:24;;;;;;;11.95;8.57;;;29.60;88.50;;;;;;4949574;28;20387;-79
2021/06/17 07:41:51;;;;;;;12.52;7.93;;;29.50;86.30;;;;;;4967667;28;20062;-79
2021/06/17 07:44:17;;;;;;;11.02;9.07;;;29.30;86.40;;;;;;4968537;28;21477;-79
2021/06/17 07:46:45;;;;;;;9.57;8.70;;;29.30;87.70;;;;;;4963594;28;20073;-79
2021/06/17 07:49:11;;;;;;;10.13;8.70;;;29.20;87.50;;;;;;4967714;28;20372;-79
2021/06/17 07:51:38;;;;;;;8.57;7.68;;;29.10;87.90;;;;;;4969030;28;20625;-79
2021/06/17 07:54:05;;;;;;;8.98;7.80;;;29.10;88.00;;;;;;4960080;28;20061;-79
2021/06/17 07:56:34;;;;;;;9.05;8.15;;;29.20;89.20;;;;;;4964290;28;20042;-79
2021/06/17 07:59:01;;;;;;;9.60;8.60;;;29.30;89.90;;;;;;4964027;28;20055;-79
2021/06/17 08:01:28;;;;;;;9.00;7.05;;;29.40;88.40;;;;;;4964640;28;20054;-79
2021/06/17 08:03:55;;;;;;;14.75;7.93;;;29.60;89.60;;;;;;4947136;28;20437;-79
2021/06/17 08:06:22;;;;;;;10.18;7.10;;;29.80;88.90;;;;;;4948470;28;20059;-79
2021/06/17 08:08:49;;;;;;;6.20;5.10;;;30.00;88.30;;;;;;4971379;28;20054;-78
2021/06/17 08:11:16;;;;;;;5.97;5.00;;;30.10;83.30;;;;;;4967828;28;20054;-78
2021/06/17 08:13:58;;;;;;;4.07;3.75;;;30.20;82.60;;;;;;4963219;28;20134;-78
2021/06/17 08:16:25;;;;;;;8.52;3.60;;;30.30;81.20;;;;;;4963978;28;20054;-78
2021/06/17 08:18:54;;;;;;;4.72;3.97;;;30.40;78.00;;;;;;4958585;28;20058;-79
2021/06/17 08:21:22;;;;;;;5.78;4.20;;;30.50;78.30;;;;;;4961844;28;20119;-78
2021/06/17 08:23:49;;;;;;;7.72;4.18;;;30.50;76.30;;;;;;4960571;28;20059;-78
2021/06/17 08:26:16;;;;;;;6.00;4.00;;;30.50;77.60;;;;;;4961832;28;20059;-79
2021/06/17 08:28:42;;;;;;;5.07;4.38;;;30.50;75.40;;;;;;4964205;28;20062;-79
2021/06/17 08:31:10;;;;;;;4.80;3.97;;;30.40;76.30;;;;;;4958340;28;20115;-79
2021/06/17 08:33:37;;;;;;;8.38;4.50;;;30.40;77.60;;;;;;4963967;28;20122;-78
2021/06/17 08:36:08;;;;;;;8.38;4.70;;;30.40;76.10;;;;;;4949273;28;20051;-78
2021/06/17 08:38:36;;;;;;;5.85;5.05;;;30.30;76.80;;;;;;4960436;28;20139;-79
2021/06/17 08:41:04;;;;;;;8.55;4.78;;;30.20;76.60;;;;;;4965894;28;20464;-78
2021/06/17 08:43:47;;;;;;;10.77;4.82;;;30.30;78.20;;;;;;4975655;28;20561;-79
2021/06/17 08:46:14;;;;;;;5.43;4.80;;;30.50;77.10;;;;;;4965489;28;20059;-79
2021/06/17 08:48:41;;;;;;;10.68;5.18;;;30.60;78.10;;;;;;4963676;28;20043;-79
2021/06/17 08:51:09;;;;;;;10.20;5.53;;;30.70;75.80;;;;;;4962225;28;20151;-79
2021/06/17 08:53:35;;;;;;;7.63;4.72;;;30.70;75.60;;;;;;4962273;28;20051;-79
2021/06/17 08:56:04;;;;;;;8.77;5.32;;;30.70;76.50;;;;;;4968143;28;20054;-79
2021/06/17 08:58:31;;;;;;;7.07;4.65;;;30.70;76.00;;;;;;4959342;28;20065;-79
2021/06/17 09:00:58;;;;;;;5.35;4.90;;;30.70;77.50;;;;;;4964594;28;20054;-79
2021/06/17 09:03:25;;;;;;;9.18;4.97;;;30.80;75.30;;;;;;4967730;28;20059;-78
2021/06/17 09:05:54;;;;;;;9.30;5.40;;;30.80;76.40;;;;;;4962831;28;20119;-79
2021/06/17 09:08:27;;;;;;;10.48;5.40;;;30.90;76.60;;;;;;4965320;28;20511;-79
2021/06/17 09:10:55;;;;;;;9.60;5.40;;;31.00;75.60;;;;;;4963409;28;20082;-79
2021/06/17 09:13:28;;;;;;;6.50;5.30;;;31.00;75.60;;;;;;4964290;28;20055;-78
2021/06/17 09:15:55;;;;;;;9.95;5.35;;;31.10;76.50;;;;;;4954440;28;20675;-79
2021/06/17 09:18:30;;;;;;;7.13;5.65;;;31.10;76.70;;;;;;4957749;28;20047;-79
2021/06/17 09:21:07;;;;;;;7.20;5.32;;;31.20;75.50;;;;;;4945072;28;20042;-79
2021/06/17 09:23:35;;;;;;;10.85;6.15;;;31.30;75.60;;;;;;4962101;28;20061;-79
2021/06/17 09:26:08;;;;;;;10.32;5.53;;;31.30;75.70;;;;;;4963969;28;20051;-79
2021/06/17 09:28:55;;;;;;;9.90;6.97;;;31.40;76.30;;;;;;4963809;28;20057;-79
2021/06/17 09:31:25;;;;;;;8.43;5.90;;;31.60;75.70;;;;;;4977183;28;20050;-79
2021/06/17 09:33:54;;;;;;;9.43;6.43;;;31.60;73.30;;;;;;4945890;28;20051;-79
2021/06/17 09:36:23;;;;;;;9.25;5.75;;;31.60;74.60;;;;;;4934958;28;20062;-80
2021/06/17 09:38:52;;;;;;;5.70;5.20;;;31.60;74.20;;;;;;4961287;28;20112;-80
2021/06/17 09:41:51;;;;;;;7.75;5.35;;;31.60;75.80;;;;;;4964230;28;20425;-80
2021/06/17 09:44:38;;;;;;;14.07;5.80;;;31.90;73.80;;;;;;4945001;28;20051;-80
2021/06/17 09:47:21;;;;;;;5.80;4.70;;;32.10;73.00;;;;;;4953391;28;20054;-80
2021/06/17 09:49:51;;;;;;;6.18;4.20;;;32.20;73.20;;;;;;4962688;28;20053;-80
2021/06/17 09:52:19;;;;;;;6.30;4.40;;;32.40;75.60;;;;;;4961883;28;20057;-80
2021/06/17 09:54:48;;;;;;;7.57;4.43;;;32.60;73.70;;;;;;4965558;28;20065;-80
2021/06/17 09:57:19;;;;;;;12.85;6.20;;;32.70;73.20;;;;;;4955400;28;20031;-80
2021/06/17 09:59:46;;;;;;;10.05;5.20;;;32.80;70.80;;;;;;4983855;28;20050;-80
2021/06/17 10:02:22;;;;;;;11.27;5.47;;;32.80;71.90;;;;;;4971321;28;20387;-80
2021/06/17 10:04:51;;;;;;;6.03;5.03;;;32.80;72.60;;;;;;4967037;28;20146;-80
2021/06/17 10:07:18;;;;;;;6.10;5.47;;;33.00;72.70;;;;;;4959153;28;20054;-80
2021/06/17 10:09:47;;;;;;;7.30;5.50;;;33.20;71.10;;;;;;4954013;28;20486;-80
2021/06/17 10:12:14;;;;;;;8.80;5.25;;;33.40;71.50;;;;;;4965948;28;20102;-80
2021/06/17 10:14:41;;;;;;;9.57;5.63;;;33.50;73.30;;;;;;4970231;28;20049;-81
2021/06/17 10:17:08;;;;;;;7.18;5.13;;;33.70;69.00;;;;;;4975527;28;20160;-80
2021/06/17 10:19:35;;;;;;;7.47;5.38;;;33.80;70.10;;;;;;4968653;28;20071;-80
2021/06/17 10:22:04;;;;;;;5.70;5.25;;;34.00;69.50;;;;;;4966114;28;20065;-80
2021/06/17 10:24:37;;;;;;;12.98;5.18;;;34.10;69.30;;;;;;4969838;28;20054;-80
2021/06/17 10:27:11;;;;;;;8.85;4.95;;;34.10;68.10;;;;;;4967414;28;20057;-80
2021/06/17 10:29:44;;;;;;;6.85;5.00;;;33.90;67.80;;;;;;4962513;28;20047;-80
2021/06/17 10:32:15;;;;;;;;;;;33.90;67.70;;;;;;4964206;28;20074;-80
2021/06/17 10:34:47;;;;;;;7.65;4.05;;;34.10;67.10;;;;;;4971964;28;19936;-80
2021/06/17 10:37:32;;;;;;;6.45;4.78;;;34.50;67.10;;;;;;4967420;28;20043;-81
2021/06/17 10:40:11;;;;;;;6.15;4.90;;;34.80;67.60;;;;;;4969033;28;20050;-81
2021/06/17 10:42:47;;;;;;;7.65;4.47;;;35.20;64.80;;;;;;4969127;28;20069;-80
2021/06/17 10:45:44;;;;;;;8.27;4.40;;;35.30;64.80;;;;;;4970301;28;20047;-81
2021/06/17 10:48:26;;;;;;;6.70;5.05;;;35.30;63.30;;;;;;4967797;28;20066;-81
2021/06/17 10:51:07;;;;;;;8.02;5.13;;;35.00;65.70;;;;;;4969273;28;20106;-80
2021/06/17 10:53:43;;;;;;;6.78;5.18;;;34.80;64.20;;;;;;4971285;28;21093;-80
2021/06/17 10:56:20;;;;;;;6.85;6.15;;;34.60;65.00;;;;;;4966630;28;20058;-78
2021/06/17 10:58:49;;;;;;;7.90;4.93;;;34.70;64.30;;;;;;4966475;28;20089;-77
2021/06/17 11:01:27;;;;;;;8.73;6.75;;;34.80;64.30;;;;;;4963739;28;20078;-81
2021/06/17 11:04:14;;;;;;;8.48;5.25;;;34.80;64.80;;;;;;4976441;28;20035;-80
2021/06/17 11:06:52;;;;;;;7.40;6.22;;;34.90;65.90;;;;;;4969022;28;20039;-80
2021/06/17 11:09:39;;;;;;;6.03;5.30;;;34.90;65.30;;;;;;4961193;28;20054;-80
2021/06/17 11:12:22;;;;;;;5.50;5.00;;;35.10;66.10;;;;;;4971536;28;20035;-80
2021/06/17 11:14:57;;;;;;;10.23;5.88;;;35.10;65.90;;;;;;4969673;28;20403;-78
2021/06/17 11:17:30;;;;;;;8.80;5.45;;;35.10;65.40;;;;;;4970752;28;20051;-80
2021/06/17 11:20:20;;;;;;;5.60;4.72;;;35.20;66.20;;;;;;4970517;28;20046;-80
2021/06/17 11:22:49;;;;;;;10.05;5.25;;;35.60;66.70;;;;;;4968030;28;20126;-79
2021/06/17 11:25:16;;;;;;;5.35;4.85;;;35.90;62.30;;;;;;4962751;28;20561;-78
2021/06/17 11:28:09;;;;;;;6.43;4.82;;;35.80;64.10;;;;;;4971794;28;20130;-79
2021/06/17 11:30:42;;;;;;;10.48;5.40;;;35.90;64.60;;;;;;4962680;28;20069;-79
2021/06/17 11:33:14;;;;;;;9.07;5.40;;;36.40;65.30;;;;;;4963302;28;20062;-80
2021/06/17 11:35:44;;;;;;;11.13;5.85;;;36.90;63.50;;;;;;4964383;28;20074;-78
2021/06/17 11:38:11;;;;;;;6.10;5.03;;;37.00;62.30;;;;;;4963449;28;20060;-78
2021/06/17 11:40:39;;;;;;;5.90;4.72;;;37.10;62.80;;;;;;4961860;28;20081;-78
2021/06/17 11:43:06;;;;;;;7.57;5.75;;;37.00;62.50;;;;;;4962762;28;20477;-79
2021/06/17 11:45:34;;;;;;;10.32;6.07;;;36.90;62.70;;;;;;4963292;28;25171;-79
2021/06/17 11:48:05;;;;;;;7.65;4.78;;;37.10;62.10;;;;;;4960569;28;20714;-79
2021/06/17 11:50:40;;;;;;;8.37;5.07;;;37.50;63.50;;;;;;4946081;28;20062;-79
2021/06/17 11:53:17;;;;;;;10.00;4.75;;;38.00;63.80;;;;;;4956345;28;20082;-79
2021/06/17 11:55:57;;;;;;;5.65;4.55;;;38.50;61.30;;;;;;4944522;28;20153;-79
2021/06/17 11:58:37;;;;;;;7.60;4.72;;;38.80;60.50;;;;;;4963662;28;20058;-79
2021/06/17 12:01:07;;;;;;;6.07;4.45;;;38.90;58.80;;;;;;4960771;28;20039;-78
2021/06/17 12:03:34;;;;;;;5.82;4.40;;;38.70;57.80;;;;;;4963677;28;20043;-79
2021/06/17 12:06:06;;;;;;;7.53;3.60;;;38.70;58.50;;;;;;4961873;28;20050;-79
2021/06/17 12:08:33;;;;;;;9.82;3.60;;;38.80;56.30;;;;;;4959159;28;20043;-79
2021/06/17 12:11:02;;;;;;;9.70;3.33;;;38.70;54.70;;;;;;4966399;28;20061;-79
2021/06/17 12:13:28;;;;;;;4.35;2.70;;;38.60;55.70;;;;;;4959795;28;20129;-79
2021/06/17 12:15:59;;;;;;;9.52;3.50;;;38.50;57.20;;;;;;4963454;28;20060;-78
2021/06/17 12:18:26;;;;;;;11.13;3.70;;;38.10;54.80;;;;;;4964135;28;20043;-78
2021/06/17 12:20:53;;;;;;;7.22;3.67;;;37.60;54.50;;;;;;4961630;28;20066;-79
2021/06/17 12:23:28;;;;;;;7.53;3.40;;;37.00;56.20;;;;;;4962418;28;20057;-78
2021/06/17 12:25:58;;;;;;;6.38;3.40;;;36.70;58.10;;;;;;4963087;28;20142;-78
2021/06/17 12:28:26;;;;;;;6.90;4.00;;;36.50;57.10;;;;;;4960514;28;20051;-78
2021/06/17 12:30:55;;;;;;;9.65;3.80;;;36.40;58.10;;;;;;4968039;28;20088;-79
2021/06/17 12:33:24;;;;;;;9.55;3.83;;;36.40;57.20;;;;;;4963416;28;20107;-78
2021/06/17 12:36:04;;;;;;;10.20;3.85;;;36.50;57.00;;;;;;4962688;28;20051;-79
2021/06/17 12:38:36;;;;;;;14.02;3.95;;;36.90;58.10;;;;;;4965990;28;20141;-78
2021/06/17 12:41:18;;;;;;;6.38;3.17;;;37.70;55.60;;;;;;4961607;28;20050;-78
2021/06/17 12:43:45;;;;;;;;;;;38.00;55.70;;;;;;4952653;28;20055;-78
2021/06/17 12:46:12;;;;;;;;;;;38.10;53.00;;;;;;4958262;28;19926;-79
2021/06/17 12:54:05;;;;;;;;;;;38.70;55.60;;;;;;4964944;28;20443;-79
2021/06/17 12:56:33;;;;;;;;;;;39.60;51.80;;;;;;4965977;28;19926;-79
2021/06/17 12:58:59;;;;;;;;;;;40.00;51.30;;;;;;4962895;28;19926;-79